Time;durP1;ratioP1;P1;durP2;ratioP2;P2;SDS_P1;SDS_P2;PMS_P1;PMS_P2;Temp;Humidity;BMP_temperature;BMP_pressure;BME280_temperature;BME280_humidity;BME280_pressure;Samples;Min_cycle;Max_cycle;Signal;HPM_P1;HPM_P2
2022/08/22 00:01:46;;;;;;;4.80;1.40;;;;;;;15.14;80.30;98881.86;105118;1285;22579;-79
2022/08/22 00:04:15;;;;;;;6.70;1.60;;;;;;;15.11;80.13;98884.80;105349;1284;25318;-74
2022/08/22 00:07:00;;;;;;;4.40;1.20;;;;;;;15.09;80.25;98885.85;105342;1284;25314;-76
2022/08/22 00:10:04;;;;;;;6.90;1.90;;;;;;;15.08;80.14;98887.10;105354;1284;24405;-76
2022/08/22 00:13:01;;;;;;;7.20;1.80;;;;;;;15.04;80.23;98890.27;105101;1284;25428;-73
2022/08/22 00:15:31;;;;;;;7.20;2.00;;;;;;;15.05;80.35;98890.55;104788;1284;25430;-76
2022/08/22 00:18:08;;;;;;;9.50;2.10;;;;;;;15.04;80.43;98895.68;105227;1284;24371;-75
2022/08/22 00:20:42;;;;;;;6.50;2.00;;;;;;;15.01;80.32;98889.32;105118;1285;23036;-82
2022/08/22 00:23:24;;;;;;;7.10;1.60;;;;;;;14.98;80.11;98889.27;104205;1284;1547195;-76
2022/08/22 00:25:58;;;;;;;6.00;1.90;;;;;;;14.95;80.34;98887.54;105321;1284;24303;-77
2022/08/22 00:28:37;;;;;;;6.60;1.60;;;;;;;14.95;80.38;98893.45;105315;1285;22568;-81
2022/08/22 00:31:25;;;;;;;6.20;1.80;;;;;;;14.94;80.25;98888.91;105357;1284;25247;-77
2022/08/22 00:34:03;;;;;;;6.40;1.60;;;;;;;14.94;80.50;98887.98;105337;1284;22577;-81
2022/08/22 00:36:51;;;;;;;6.30;1.80;;;;;;;14.95;80.36;98890.84;105356;1284;25574;-75
2022/08/22 00:39:23;;;;;;;4.70;1.40;;;;;;;14.92;80.29;98893.55;105511;1278;23032;-81
2022/08/22 00:42:15;;;;;;;7.20;1.80;;;;;;;14.91;80.32;98890.66;105739;1278;24241;-76
2022/08/22 00:44:54;;;;;;;6.50;1.60;;;;;;;14.93;80.59;98892.39;105825;1277;22637;-78
2022/08/22 00:47:44;;;;;;;5.90;1.60;;;;;;;14.94;80.32;98889.85;105874;1277;25270;-74
2022/08/22 00:50:42;;;;;;;5.20;1.30;;;;;;;14.94;80.33;98891.27;105736;1278;22726;-81
2022/08/22 00:53:35;;;;;;;6.00;1.60;;;;;;;14.91;80.41;98892.84;105835;1278;22538;-76
2022/08/22 00:56:27;;;;;;;6.80;1.80;;;;;;;14.89;80.36;98894.74;105632;1283;22548;-76
2022/08/22 00:59:32;;;;;;;9.40;1.80;;;;;;;14.84;80.29;98896.05;105849;1278;24227;-80
2022/08/22 01:02:09;;;;;;;6.00;2.00;;;;;;;14.81;80.40;98898.17;105637;1282;26780;-75
2022/08/22 01:04:49;;;;;;;4.20;1.50;;;;;;;14.82;80.34;98900.23;105871;1278;22574;-79
2022/08/22 01:07:40;;;;;;;6.10;1.60;;;;;;;14.79;80.35;98900.30;105881;1278;22761;-79
2022/08/22 01:10:29;;;;;;;7.90;1.50;;;;;;;14.80;80.39;98897.57;105824;1278;25351;-78
2022/08/22 01:13:19;;;;;;;6.00;1.70;;;;;;;14.78;80.47;98897.42;105823;1278;24219;-76
2022/08/22 01:15:49;;;;;;;7.80;2.30;;;;;;;14.77;80.71;98897.27;105708;1281;25318;-75
2022/08/22 01:18:40;;;;;;;5.90;1.60;;;;;;;14.79;80.72;98901.04;105850;1278;23325;-78
2022/08/22 01:21:16;;;;;;;5.50;1.60;;;;;;;14.80;80.51;98901.34;105846;1278;25290;-77
2022/08/22 01:23:46;;;;;;;4.80;1.40;;;;;;;14.76;80.53;98901.67;105830;1278;22684;-79
2022/08/22 01:26:41;;;;;;;9.00;1.70;;;;;;;14.74;80.61;98906.55;105698;1281;23907;-79
2022/08/22 01:29:36;;;;;;;5.80;1.80;;;;;;;14.74;80.73;98908.83;105843;1277;25404;-75
2022/08/22 01:32:32;;;;;;;6.60;1.90;;;;;;;14.71;80.59;98907.91;105834;1278;22591;-74
2022/08/22 01:35:26;;;;;;;6.50;2.00;;;;;;;14.69;80.70;98911.98;105852;1278;25633;-76
2022/08/22 01:38:19;;;;;;;5.00;1.50;;;;;;;14.67;80.61;98910.58;105701;1281;23952;-78
2022/08/22 01:41:13;;;;;;;6.30;1.70;;;;;;;14.61;80.43;98913.83;105719;1278;22632;-81
2022/08/22 01:43:52;;;;;;;6.10;1.80;;;;;;;14.57;80.66;98912.37;105660;1278;24081;-82
2022/08/22 01:46:30;;;;;;;5.80;1.70;;;;;;;14.58;80.80;98901.13;105837;1281;22648;-76
2022/08/22 01:49:04;;;;;;;8.60;2.00;;;;;;;14.57;80.67;98901.08;105841;1278;22559;-76
2022/08/22 01:52:01;;;;;;;6.00;2.00;;;;;;;14.55;80.80;98896.42;105891;1278;25264;-76
2022/08/22 01:54:53;;;;;;;7.20;1.80;;;;;;;14.54;80.71;98894.19;105754;1278;22637;-82
2022/08/22 01:57:25;;;;;;;8.30;2.00;;;;;;;14.51;80.69;98898.94;105715;1278;22554;-75
2022/08/22 01:59:56;;;;;;;6.30;1.70;;;;;;;14.48;80.88;98899.02;105739;1281;25306;-76
2022/08/22 02:02:46;;;;;;;6.50;1.70;;;;;;;14.47;80.86;98897.32;105866;1278;25249;-76
2022/08/22 02:05:20;;;;;;;5.80;1.70;;;;;;;14.49;80.97;98898.44;105865;1278;25362;-75
2022/08/22 02:08:21;;;;;;;5.40;1.70;;;;;;;14.48;80.87;98897.63;105865;1277;25285;-75
2022/08/22 02:11:09;;;;;;;7.20;1.70;;;;;;;14.49;80.97;98895.22;105840;1278;24221;-81
2022/08/22 02:13:57;;;;;;;8.30;1.80;;;;;;;14.50;81.08;98892.98;105743;1278;24360;-81
2022/08/22 02:16:39;;;;;;;5.30;1.70;;;;;;;14.51;81.07;98895.36;105683;1278;25359;-77
2022/08/22 02:19:18;;;;;;;6.60;2.00;;;;;;;14.54;81.20;98887.54;105821;1277;22744;-79
2022/08/22 02:22:02;;;;;;;6.10;1.90;;;;;;;14.54;81.02;98891.02;105641;1278;24263;-81
2022/08/22 02:24:32;;;;;;;6.60;2.10;;;;;;;14.53;81.10;98892.32;105845;1277;25244;-75
2022/08/22 02:27:24;;;;;;;6.10;2.00;;;;;;;14.53;81.05;98896.09;105725;1281;23979;-74
2022/08/22 02:30:11;;;;;;;5.60;1.90;;;;;;;14.53;81.02;98898.60;105724;1281;24213;-81
2022/08/22 02:32:55;;;;;;;10.40;2.00;;;;;;;14.56;81.14;98899.42;105720;1278;22543;-80
2022/08/22 02:35:36;;;;;;;5.00;1.50;;;;;;;14.58;81.05;98898.33;105832;1277;24247;-79
2022/08/22 02:38:42;;;;;;;6.90;1.70;;;;;;;14.57;81.00;98901.45;105872;1277;24277;-81
2022/08/22 02:41:20;;;;;;;6.30;2.00;;;;;;;14.57;81.18;98900.71;105023;1287;24264;-81
2022/08/22 02:44:00;;;;;;;6.30;1.90;;;;;;;14.57;81.17;98900.20;105001;1287;22679;-79
2022/08/22 02:46:46;;;;;;;5.70;2.20;;;;;;;14.58;81.39;98901.50;105017;1287;22553;-75
2022/08/22 02:49:32;;;;;;;9.30;2.10;;;;;;;14.60;81.30;98902.77;105098;1287;22707;-79
2022/08/22 02:52:11;;;;;;;8.20;2.10;;;;;;;14.62;81.30;98903.36;104958;1287;25259;-75
2022/08/22 02:54:52;;;;;;;9.10;2.10;;;;;;;14.63;81.46;98900.02;105061;1287;22701;-79
2022/08/22 02:57:30;;;;;;;7.80;2.00;;;;;;;14.67;81.52;98903.98;105077;1287;22587;-76
2022/08/22 03:00:00;;;;;;;5.00;1.60;;;;;;;14.68;81.24;98906.16;105046;1287;22653;-81
2022/08/22 03:02:30;;;;;;;6.40;2.10;;;;;;;14.66;81.08;98906.55;105070;1287;25226;-75
2022/08/22 03:05:20;;;;;;;8.70;2.10;;;;;;;14.67;81.42;98910.57;105090;1287;25234;-76
2022/08/22 03:08:06;;;;;;;6.70;2.10;;;;;;;14.73;81.63;98914.66;105026;1287;24220;-81
2022/08/22 03:10:39;;;;;;;8.00;2.00;;;;;;;14.75;81.42;98914.48;105059;1287;22544;-79
2022/08/22 03:13:16;;;;;;;6.90;1.80;;;;;;;14.75;81.37;98914.89;105012;1287;24230;-75
2022/08/22 03:15:43;;;;;;;4.30;1.50;;;;;;;14.78;81.58;98916.37;105295;1280;25340;-76
2022/08/22 03:18:44;;;;;;;7.10;1.80;;;;;;;14.78;81.27;98915.43;105854;1278;25475;-76
2022/08/22 03:21:34;;;;;;;6.10;1.70;;;;;;;14.71;81.08;98921.45;105849;1277;25435;-75
2022/08/22 03:24:11;;;;;;;5.40;1.50;;;;;;;14.69;81.26;98917.80;105697;1278;22728;-74
2022/08/22 03:26:50;;;;;;;5.80;1.70;;;;;;;14.66;81.19;98922.36;105626;1277;22577;-75
2022/08/22 03:29:26;;;;;;;5.60;1.80;;;;;;;14.65;81.33;98920.66;105641;1280;24042;-75
2022/08/22 03:32:15;;;;;;;8.00;1.90;;;;;;;14.61;81.18;98924.94;105677;1279;22537;-78
2022/08/22 03:34:59;;;;;;;5.30;1.70;;;;;;;14.60;81.45;98926.77;105834;1277;22694;-76
2022/08/22 03:37:36;;;;;;;7.20;2.00;;;;;;;14.59;81.32;98927.10;105723;1278;25292;-78
2022/08/22 03:40:18;;;;;;;7.40;1.70;;;;;;;14.56;81.37;98929.66;105874;1277;25281;-82
2022/08/22 03:42:54;;;;;;;7.70;1.70;;;;;;;14.54;81.33;98932.39;105820;1278;22553;-81
2022/08/22 03:45:37;;;;;;;6.60;1.50;;;;;;;14.53;81.31;98931.78;105685;1280;25323;-76
2022/08/22 03:48:09;;;;;;;6.70;1.50;;;;;;;14.54;81.48;98932.69;105851;1277;25359;-77
2022/08/22 03:50:45;;;;;;;8.30;2.30;;;;;;;14.52;81.17;98937.05;105845;1277;24323;-78
2022/08/22 03:53:31;;;;;;;8.20;2.30;;;;;;;14.46;81.47;98944.19;105732;1280;24250;-78
2022/08/22 03:56:19;;;;;;;6.30;2.00;;;;;;;14.52;81.99;98943.63;105698;1279;22649;-81
2022/08/22 03:58:56;;;;;;;6.10;1.90;;;;;;;14.62;81.94;98944.20;105827;1277;25298;-77
2022/08/22 04:01:38;;;;;;;6.20;1.70;;;;;;;14.63;81.74;98946.61;105842;1277;25244;-75
2022/08/22 04:04:30;;;;;;;8.20;2.30;;;;;;;14.66;81.72;98949.55;105851;1278;22781;-77
2022/08/22 04:07:26;;;;;;;7.00;2.30;;;;;;;14.61;81.52;98950.35;105821;1278;22716;-76
2022/08/22 04:10:28;;;;;;;8.10;2.40;;;;;;;14.62;81.77;98951.02;105862;1278;25453;-76
2022/08/22 04:13:10;;;;;;;5.30;2.00;;;;;;;14.59;81.51;98948.71;105662;1278;22559;-94
2022/08/22 04:16:14;;;;;;;6.30;2.10;;;;;;;14.55;81.41;98951.25;105854;1277;24216;-80
2022/08/22 04:18:56;;;;;;;5.80;1.90;;;;;;;14.45;81.43;98952.48;105714;1278;24292;-76
2022/08/22 04:21:51;;;;;;;5.70;1.50;;;;;;;14.40;81.46;98956.05;105821;1277;24042;-77
2022/08/22 04:24:32;;;;;;;5.80;2.10;;;;;;;14.39;81.63;98960.77;105829;1277;26621;-82
2022/08/22 04:27:31;;;;;;;4.70;1.40;;;;;;;14.35;81.52;98961.66;105722;1277;22562;-76
2022/08/22 04:30:03;;;;;;;5.20;1.60;;;;;;;14.31;81.54;98962.35;105689;1279;24614;-79
2022/08/22 04:32:54;;;;;;;6.90;1.70;;;;;;;14.30;81.70;98963.67;105837;1277;22551;-76
2022/08/22 04:35:34;;;;;;;6.60;1.50;;;;;;;14.36;81.86;98963.17;105877;1277;22547;-77
2022/08/22 04:38:11;;;;;;;7.00;1.60;;;;;;;14.35;81.68;98965.41;105828;1277;25314;-75
2022/08/22 04:41:07;;;;;;;6.50;1.40;;;;;;;14.35;81.74;98967.56;105716;1278;25791;-76
2022/08/22 04:44:06;;;;;;;9.70;1.80;;;;;;;14.31;81.54;98969.34;105692;1278;22700;-80
2022/08/22 04:46:39;;;;;;;7.50;1.60;;;;;;;14.29;81.80;98972.20;105703;1277;25459;-78
2022/08/22 04:49:21;;;;;;;7.40;2.10;;;;;;;14.27;81.52;98973.10;105846;1276;25365;-77
2022/08/22 04:52:04;;;;;;;5.40;1.40;;;;;;;14.21;81.58;98979.88;105909;1277;25364;-76
2022/08/22 04:54:58;;;;;;;4.60;1.50;;;;;;;14.16;81.43;98986.64;105724;1280;22538;-82
2022/08/22 04:57:56;;;;;;;4.90;1.60;;;;;;;14.13;81.70;98987.77;105867;1277;24386;-82
2022/08/22 05:00:23;;;;;;;3.90;1.40;;;;;;;14.12;81.65;98986.75;105758;1277;25289;-76
2022/08/22 05:02:55;;;;;;;5.80;1.10;;;;;;;14.07;81.57;98982.90;105845;1277;22561;-78
2022/08/22 05:05:37;;;;;;;3.80;0.90;;;;;;;13.97;81.21;98979.85;105839;1278;25152;-76
2022/08/22 05:08:08;;;;;;;6.10;1.00;;;;;;;13.85;81.01;98981.98;105857;1277;26834;-83
2022/08/22 05:10:42;;;;;;;4.00;0.70;;;;;;;13.77;81.11;98978.38;105683;1281;25595;-76
2022/08/22 05:13:29;;;;;;;5.80;1.20;;;;;;;13.68;81.20;98980.71;105765;1278;22548;-78
2022/08/22 05:16:05;;;;;;;5.60;0.80;;;;;;;13.63;81.16;98987.30;105870;1277;22639;-82
2022/08/22 05:18:40;;;;;;;7.00;0.90;;;;;;;13.59;81.43;98988.30;105892;1277;22563;-77
2022/08/22 05:21:10;;;;;;;4.20;0.90;;;;;;;13.61;81.62;98990.51;105894;1276;22556;-82
2022/08/22 05:23:43;;;;;;;5.10;1.20;;;;;;;13.65;81.75;98990.17;105714;1278;22551;-80
2022/08/22 05:26:12;;;;;;;5.60;1.10;;;;;;;13.69;81.64;98987.90;105652;1278;25505;-77
2022/08/22 05:29:02;;;;;;;5.10;1.40;;;;;;;13.68;81.70;98993.49;105709;1276;22717;-75
2022/08/22 05:31:33;;;;;;;5.10;1.30;;;;;;;13.72;81.69;98989.03;105712;1277;22552;-81
2022/08/22 05:34:08;;;;;;;5.30;1.30;;;;;;;13.74;81.83;98988.45;105710;1278;25240;-75
2022/08/22 05:37:09;;;;;;;4.80;1.20;;;;;;;13.80;81.98;98991.89;105710;1277;23279;-78
2022/08/22 05:39:40;;;;;;;5.70;1.30;;;;;;;13.82;81.87;98997.11;105729;1276;25506;-83
2022/08/22 05:42:14;;;;;;;5.50;1.30;;;;;;;13.89;82.09;98994.70;105824;1277;25462;-82
2022/08/22 05:44:41;;;;;;;4.70;0.90;;;;;;;13.95;82.16;98994.52;105701;1277;22569;-76
2022/08/22 05:47:35;;;;;;;3.60;0.90;;;;;;;13.96;81.77;98994.43;105849;1277;25381;-78
2022/08/22 05:50:07;;;;;;;4.10;0.80;;;;;;;13.96;81.79;98991.77;105716;1277;24300;-78
2022/08/22 05:52:50;;;;;;;3.30;1.10;;;;;;;13.96;81.79;98993.35;105847;1276;24322;-81
2022/08/22 05:55:25;;;;;;;3.10;1.20;;;;;;;13.92;81.73;98991.55;105839;1276;22550;-78
2022/08/22 05:58:02;;;;;;;4.40;1.00;;;;;;;13.91;81.94;98988.45;105846;1277;25314;-77
2022/08/22 06:00:35;;;;;;;3.00;0.90;;;;;;;13.92;81.86;98986.57;105685;1277;22534;-79
2022/08/22 06:03:17;;;;;;;4.50;1.00;;;;;;;13.94;81.97;98991.04;105748;1277;25209;-76
2022/08/22 06:05:48;;;;;;;6.30;1.00;;;;;;;13.97;81.93;98993.95;105706;1277;25493;-76
2022/08/22 06:08:31;;;;;;;4.20;1.00;;;;;;;14.00;82.06;98992.65;105732;1276;22644;-81
2022/08/22 06:11:06;;;;;;;3.00;0.80;;;;;;;14.08;82.24;98993.02;105699;1279;22574;-76
2022/08/22 06:13:38;;;;;;;4.00;0.90;;;;;;;14.12;81.96;98996.64;105886;1276;25478;-77
2022/08/22 06:16:20;;;;;;;4.40;1.00;;;;;;;14.16;82.18;98998.05;105711;1277;24268;-76
2022/08/22 06:18:49;;;;;;;4.60;1.30;;;;;;;14.19;82.03;99000.27;105849;1276;22648;-82
2022/08/22 06:21:30;;;;;;;4.70;1.00;;;;;;;14.21;82.09;99000.66;105891;1276;22607;-81
2022/08/22 06:24:00;;;;;;;6.60;1.20;;;;;;;14.21;82.08;98998.85;105708;1276;24250;-77
2022/08/22 06:26:33;;;;;;;5.80;1.20;;;;;;;14.23;82.10;98998.48;105910;1277;24520;-76
2022/08/22 06:29:01;;;;;;;4.20;1.00;;;;;;;14.22;82.06;98999.16;105697;1277;22559;-76
2022/08/22 06:31:35;;;;;;;4.30;0.70;;;;;;;14.24;82.20;99001.59;105847;1277;22766;-78
2022/08/22 06:34:16;;;;;;;3.40;0.90;;;;;;;14.24;81.97;98999.51;105832;1277;25527;-76
2022/08/22 06:36:48;;;;;;;4.60;0.90;;;;;;;14.18;81.95;98997.14;105705;1278;22856;-79
2022/08/22 06:39:24;;;;;;;5.40;1.20;;;;;;;14.12;81.90;98991.40;105748;1277;24226;-80
2022/08/22 06:41:56;;;;;;;4.50;1.30;;;;;;;14.06;81.94;98996.09;105855;1278;22548;-78
2022/08/22 06:44:30;;;;;;;5.10;1.20;;;;;;;14.00;82.05;98997.82;105729;1277;24423;-80
2022/08/22 06:47:00;;;;;;;3.70;1.00;;;;;;;14.01;82.27;98997.20;105859;1277;24306;-76
2022/08/22 06:49:31;;;;;;;4.70;1.00;;;;;;;14.02;82.15;98995.16;105871;1277;22538;-76
2022/08/22 06:52:11;;;;;;;4.60;1.10;;;;;;;14.04;82.23;98997.31;105845;1278;22583;-83
2022/08/22 06:54:45;;;;;;;5.40;1.50;;;;;;;14.05;82.33;99001.70;105716;1279;22573;-80
2022/08/22 06:57:44;;;;;;;4.80;1.10;;;;;;;14.11;82.50;99004.07;105733;1278;25511;-77
2022/08/22 07:00:14;;;;;;;3.80;1.10;;;;;;;14.11;82.23;98998.73;105713;1276;25322;-75
2022/08/22 07:02:44;;;;;;;3.90;1.00;;;;;;;14.11;82.16;99001.17;105845;1278;22567;-82
2022/08/22 07:05:22;;;;;;;5.20;1.10;;;;;;;14.11;82.11;98996.48;105771;1277;22585;-78
2022/08/22 07:07:49;;;;;;;2.60;0.90;;;;;;;14.09;82.20;98996.66;105761;1277;25638;-78
2022/08/22 07:10:17;;;;;;;5.80;1.20;;;;;;;14.09;81.96;98994.55;105823;1277;25361;-76
2022/08/22 07:12:47;;;;;;;4.30;1.10;;;;;;;14.07;82.20;98991.35;105714;1278;25455;-76
2022/08/22 07:15:39;;;;;;;4.30;1.20;;;;;;;14.06;82.10;98988.94;105849;1277;22772;-79
2022/08/22 07:18:15;;;;;;;4.40;1.20;;;;;;;14.05;82.15;98993.48;105708;1278;22693;-78
2022/08/22 07:20:48;;;;;;;4.30;1.10;;;;;;;13.98;81.77;98993.92;105724;1278;22538;-77
2022/08/22 07:23:46;;;;;;;4.90;1.30;;;;;;;13.91;81.86;98989.81;105872;1277;22563;-80
2022/08/22 07:26:16;;;;;;;6.10;1.40;;;;;;;13.88;82.09;98984.56;105762;1278;23256;-82
2022/08/22 07:28:54;;;;;;;2.40;1.10;;;;;;;13.92;82.26;98985.30;105722;1277;23175;-78
2022/08/22 07:31:36;;;;;;;4.60;1.30;;;;;;;13.91;82.21;98987.19;105641;1277;25541;-76
2022/08/22 07:34:32;;;;;;;4.30;1.30;;;;;;;13.92;82.24;98987.61;105830;1277;25232;-77
2022/08/22 07:37:25;;;;;;;7.10;3.20;;;;;;;13.95;82.24;98988.80;105710;1277;22536;-76
2022/08/22 07:40:16;;;;;;;7.30;2.80;;;;;;;13.94;82.14;98989.48;105877;1277;24251;-76
2022/08/22 07:43:02;;;;;;;5.10;2.00;;;;;;;13.93;82.22;98988.46;105851;1277;22682;-77
2022/08/22 07:45:51;;;;;;;5.60;1.50;;;;;;;13.96;82.17;98985.48;105787;1277;22541;-77
2022/08/22 07:48:45;;;;;;;2.50;1.10;;;;;;;13.98;82.25;98989.23;105811;1277;25255;-77
2022/08/22 07:51:16;;;;;;;10.50;3.70;;;;;;;13.99;82.22;98985.59;105648;1277;25547;-76
2022/08/22 07:54:00;;;;;;;18.10;9.20;;;;;;;13.99;82.33;98987.88;105762;1276;22629;-77
2022/08/22 07:56:34;;;;;;;8.60;3.20;;;;;;;13.99;82.31;98978.63;105536;1278;25310;-80
2022/08/22 07:59:17;;;;;;;26.80;14.00;;;;;;;14.01;82.33;98982.02;105661;1280;25547;-77
2022/08/22 08:01:50;;;;;;;14.00;5.70;;;;;;;14.02;82.35;98979.56;105841;1276;25347;-76
2022/08/22 08:04:23;;;;;;;9.40;4.10;;;;;;;13.98;82.27;98985.64;105807;1277;22707;-76
2022/08/22 08:06:55;;;;;;;6.80;2.10;;;;;;;13.94;82.35;98982.09;105888;1277;22578;-76
2022/08/22 08:09:26;;;;;;;6.30;2.40;;;;;;;13.93;82.56;98978.41;105861;1276;22783;-77
2022/08/22 08:11:54;;;;;;;8.10;3.30;;;;;;;13.98;82.72;98980.24;105856;1276;22735;-75
2022/08/22 08:14:23;;;;;;;10.80;5.00;;;;;;;13.99;82.31;98976.48;105870;1276;22694;-77
2022/08/22 08:17:00;;;;;;;30.40;18.00;;;;;;;13.96;82.49;98971.70;105720;1277;24272;-75
2022/08/22 08:19:34;;;;;;;16.40;7.70;;;;;;;13.99;82.49;98970.87;105721;1278;22534;-78
2022/08/22 08:22:03;;;;;;;8.70;4.40;;;;;;;14.04;82.64;98968.83;105845;1276;22569;-76
2022/08/22 08:24:41;;;;;;;8.70;3.50;;;;;;;14.09;82.65;98969.84;105848;1277;22563;-75
2022/08/22 08:30:20;;;;;;;7.90;3.20;;;;;;;14.21;82.67;98968.98;105770;1277;22654;-80
2022/08/22 08:32:55;;;;;;;7.30;2.70;;;;;;;14.31;82.83;98967.70;105786;1277;22631;-78
2022/08/22 08:35:52;;;;;;;4.90;1.60;;;;;;;14.40;82.70;98970.31;105821;1277;25311;-77
2022/08/22 08:38:25;;;;;;;6.70;2.00;;;;;;;14.48;82.74;98966.56;105763;1278;23704;-79
2022/08/22 08:41:01;;;;;;;5.70;1.90;;;;;;;14.53;82.88;98965.24;105790;1277;23857;-75
2022/08/22 08:43:35;;;;;;;6.90;2.70;;;;;;;14.59;82.82;98963.95;105756;1277;24362;-76
2022/08/22 08:46:13;;;;;;;6.90;1.70;;;;;;;14.64;82.98;98966.03;105807;1277;22726;-76
2022/08/22 08:49:25;;;;;;;4.90;1.80;;;;;;;14.73;83.03;98964.46;105854;1277;24368;-75
2022/08/22 08:52:16;;;;;;;5.00;1.60;;;;;;;14.77;82.67;98963.20;105152;1285;23825;-76
2022/08/22 08:55:01;;;;;;;4.10;1.30;;;;;;;14.79;82.76;98963.06;104832;1287;24640;-76
2022/08/22 08:57:44;;;;;;;5.30;1.60;;;;;;;14.79;82.62;98966.69;104910;1285;25315;-75
2022/08/22 09:00:48;;;;;;;5.40;1.80;;;;;;;14.79;82.93;98961.59;104942;1285;22535;-75
2022/08/22 09:03:43;;;;;;;4.70;1.30;;;;;;;14.84;82.90;98962.92;105000;1285;22544;-79
2022/08/22 09:06:16;;;;;;;6.50;1.50;;;;;;;14.84;82.63;98961.18;105227;1285;25350;-76
2022/08/22 09:08:52;;;;;;;4.90;1.40;;;;;;;14.79;82.58;98961.28;105102;1287;24477;-76
2022/08/22 09:11:41;;;;;;;6.00;1.50;;;;;;;14.71;82.46;98960.21;105284;1285;22545;-77
2022/08/22 09:14:20;;;;;;;4.40;1.30;;;;;;;14.67;82.69;98958.77;105240;1285;22673;-80
2022/08/22 09:17:19;;;;;;;3.40;1.10;;;;;;;14.65;82.68;98961.46;105245;1285;22581;-78
2022/08/22 09:20:13;;;;;;;5.20;1.40;;;;;;;14.60;82.69;98962.83;105257;1285;25555;-76
2022/08/22 09:22:41;;;;;;;4.30;1.30;;;;;;;14.60;82.93;98961.35;105261;1285;22585;-77
2022/08/22 09:25:30;;;;;;;5.90;1.50;;;;;;;14.59;82.76;98965.06;105262;1285;22550;-80
2022/08/22 09:28:11;;;;;;;4.30;1.30;;;;;;;14.56;82.77;98964.58;105218;1276;23083;-80
2022/08/22 09:31:22;;;;;;;4.40;1.10;;;;;;;14.58;82.93;98966.92;105519;1278;23955;-81
2022/08/22 09:33:59;;;;;;;4.50;1.30;;;;;;;14.65;83.24;98969.15;105664;1279;22556;-78
2022/08/22 09:36:34;;;;;;;2.90;1.00;;;;;;;14.72;83.33;98967.60;105712;1277;25507;-76
2022/08/22 09:39:23;;;;;;;4.40;1.30;;;;;;;14.76;83.05;98966.22;105656;1278;22706;-76
2022/08/22 09:42:01;;;;;;;3.60;1.20;;;;;;;14.80;83.25;98964.55;105747;1276;25387;-76
2022/08/22 09:44:40;;;;;;;3.90;1.30;;;;;;;14.86;83.23;98963.52;105730;1277;24244;-75
2022/08/22 09:47:21;;;;;;;3.50;1.20;;;;;;;14.98;83.45;98962.06;105763;1278;24296;-79
2022/08/22 09:50:11;;;;;;;2.60;0.90;;;;;;;14.98;82.94;98957.42;105835;1276;22727;-80
2022/08/22 09:53:06;;;;;;;4.70;1.30;;;;;;;14.94;82.72;98962.39;105834;1276;22543;-80
2022/08/22 09:56:04;;;;;;;4.90;1.30;;;;;;;14.87;83.04;98964.64;105823;1277;23190;-75
2022/08/22 09:58:53;;;;;;;3.30;1.20;;;;;;;14.92;83.26;98961.85;105703;1276;25304;-77
2022/08/22 10:01:26;;;;;;;4.20;1.10;;;;;;;14.89;82.93;98960.02;105837;1278;24306;-79
2022/08/22 10:04:31;;;;;;;5.00;1.10;;;;;;;14.89;82.98;98958.60;105908;1276;22788;-74
2022/08/22 10:07:33;;;;;;;4.20;0.80;;;;;;;14.86;83.14;98958.59;105832;1276;22563;-76
2022/08/22 10:10:12;;;;;;;3.50;1.10;;;;;;;14.88;83.17;98956.13;105050;1287;22548;-77
2022/08/22 10:13:08;;;;;;;3.80;1.10;;;;;;;14.93;83.21;98947.45;105016;1287;22573;-80
2022/08/22 10:15:50;;;;;;;4.10;1.10;;;;;;;14.95;83.14;98951.23;105020;1287;25514;-76
2022/08/22 10:18:34;;;;;;;8.10;2.70;;;;;;;14.95;83.08;98953.54;105091;1287;22644;-78
2022/08/22 10:21:04;;;;;;;6.50;2.50;;;;;;;14.97;83.23;98948.73;104997;1287;25642;-75
2022/08/22 10:23:49;;;;;;;7.80;4.80;;;;;;;14.99;83.32;98950.45;105044;1287;22563;-75
2022/08/22 10:26:16;;;;;;;10.80;5.60;;;;;;;15.01;83.29;98952.65;104941;1287;22559;-78
2022/08/22 10:28:56;;;;;;;8.50;4.30;;;;;;;14.99;83.14;98952.59;105039;1287;25414;-75
2022/08/22 10:31:49;;;;;;;16.20;10.30;;;;;;;14.98;83.30;98951.11;104949;1287;25498;-75
2022/08/22 10:34:21;;;;;;;10.30;4.30;;;;;;;14.99;83.28;98952.42;104793;1287;23083;-81
2022/08/22 10:37:12;;;;;;;12.30;6.90;;;;;;;14.98;83.21;98954.13;105009;1287;22567;-83
2022/08/22 10:39:59;;;;;;;7.90;4.00;;;;;;;14.99;83.38;98951.75;105020;1287;25531;-76
2022/08/22 10:42:32;;;;;;;5.70;2.30;;;;;;;15.01;83.45;98952.58;105037;1287;24414;-75
2022/08/22 10:44:58;;;;;;;6.80;3.20;;;;;;;15.04;83.31;98955.38;105011;1287;23122;-77
2022/08/22 10:47:37;;;;;;;7.20;2.50;;;;;;;15.05;83.28;98955.48;105328;1277;25238;-75
2022/08/22 10:50:35;;;;;;;7.80;3.30;;;;;;;15.08;83.47;98953.60;105675;1278;25255;-76
2022/08/22 10:53:29;;;;;;;6.10;2.90;;;;;;;15.18;83.76;98946.75;105790;1276;22547;-76
2022/08/22 10:56:24;;;;;;;4.10;1.60;;;;;;;15.27;83.51;98950.26;105760;1276;24300;-79
2022/08/22 10:59:25;;;;;;;5.70;2.40;;;;;;;15.30;83.56;98945.42;105715;1278;22563;-76
2022/08/22 11:02:14;;;;;;;5.50;2.30;;;;;;;15.40;83.48;98944.66;105791;1276;22563;-74
2022/08/22 11:05:15;;;;;;;5.50;2.00;;;;;;;15.45;83.30;98945.52;105742;1276;25241;-76
2022/08/22 11:08:03;;;;;;;4.80;2.00;;;;;;;15.45;83.21;98945.12;105660;1278;23599;-77
2022/08/22 11:10:53;;;;;;;4.30;1.80;;;;;;;15.47;83.43;98948.54;105815;1277;24528;-78
2022/08/22 11:13:42;;;;;;;4.50;1.40;;;;;;;15.51;83.41;98941.98;105615;1278;22553;-75
2022/08/22 11:16:29;;;;;;;3.40;1.40;;;;;;;15.51;83.16;98943.67;105763;1277;25236;-76
2022/08/22 11:19:22;;;;;;;3.60;1.20;;;;;;;15.53;83.46;98945.59;105586;1279;22546;-81
2022/08/22 11:22:08;;;;;;;3.40;1.30;;;;;;;15.63;83.77;98941.64;105031;1285;22922;-81
2022/08/22 11:24:57;;;;;;;3.30;1.20;;;;;;;15.72;83.67;98944.37;105023;1286;24383;-81
2022/08/22 11:27:26;;;;;;;4.10;1.60;;;;;;;15.82;83.76;98950.06;105202;1285;25472;-79
2022/08/22 11:30:05;;;;;;;6.00;2.00;;;;;;;15.91;83.71;98948.64;105056;1285;25550;-79
2022/08/22 11:32:37;;;;;;;10.30;5.10;;;;;;;15.94;83.41;98947.95;105054;1285;25767;-75
2022/08/22 11:35:24;;;;;;;5.00;1.70;;;;;;;15.90;83.20;98951.27;105075;1285;24231;-79
2022/08/22 11:38:10;;;;;;;5.20;2.10;;;;;;;15.87;83.28;98952.98;105012;1285;25326;-77
2022/08/22 11:40:49;;;;;;;7.60;3.40;;;;;;;15.79;83.29;98953.46;104997;1287;22553;-78
2022/08/22 11:43:35;;;;;;;3.90;1.60;;;;;;;15.76;83.51;98954.04;105059;1285;25432;-75
2022/08/22 11:46:17;;;;;;;4.60;2.00;;;;;;;15.75;83.50;98955.74;104898;1285;25320;-78
2022/08/22 11:49:02;;;;;;;5.00;2.40;;;;;;;15.70;83.48;98958.23;105224;1285;22589;-76
2022/08/22 11:51:57;;;;;;;6.30;2.20;;;;;;;15.73;83.92;98962.55;105195;1285;25487;-77
2022/08/22 11:54:42;;;;;;;4.20;1.70;;;;;;;15.75;83.64;98964.54;104982;1285;22550;-75
2022/08/22 11:57:16;;;;;;;5.10;2.10;;;;;;;15.73;83.72;98965.15;104880;1285;22642;-77
2022/08/22 12:00:11;;;;;;;4.70;1.90;;;;;;;15.79;84.16;98965.23;105304;1277;25472;-77
2022/08/22 12:03:04;;;;;;;7.30;2.00;;;;;;;15.91;84.15;98963.21;105593;1279;22541;-76
2022/08/22 12:05:53;;;;;;;4.00;1.70;;;;;;;15.99;84.19;98965.11;105610;1278;22574;-82
2022/08/22 12:08:28;;;;;;;6.00;1.60;;;;;;;16.05;84.00;98964.36;105705;1279;22564;-80
2022/08/22 12:11:10;;;;;;;4.60;1.60;;;;;;;16.09;84.01;98963.79;105766;1278;22665;-77
2022/08/22 12:13:49;;;;;;;4.90;1.80;;;;;;;16.14;84.21;98960.50;105765;1278;22563;-81
2022/08/22 12:16:43;;;;;;;5.50;2.60;;;;;;;16.19;83.98;98964.98;105747;1278;22576;-78
2022/08/22 12:19:26;;;;;;;3.40;1.50;;;;;;;16.19;83.69;98961.55;105804;1278;22557;-82
2022/08/22 12:21:53;;;;;;;5.90;2.40;;;;;;;16.18;83.63;98954.67;104044;1279;2172009;-78
2022/08/22 12:25:17;;;;;;;8.20;4.00;;;;;;;16.20;83.78;98958.63;105730;1279;22580;-78
2022/08/22 12:28:08;;;;;;;5.40;2.40;;;;;;;16.21;83.94;98956.12;105762;1277;25240;-78
2022/08/22 12:30:38;;;;;;;5.50;2.30;;;;;;;16.20;83.74;98957.02;105734;1277;25352;-76
2022/08/22 12:33:36;;;;;;;8.10;4.10;;;;;;;16.17;83.70;98957.83;105748;1278;24068;-77
2022/08/22 12:36:42;;;;;;;4.60;1.80;;;;;;;16.11;83.85;98956.74;105617;1278;24837;-79
2022/08/22 12:39:34;;;;;;;4.30;1.90;;;;;;;16.08;83.71;98952.95;105822;1279;22557;-82